sensor_id;sensor_type;location;lat;lon;timestamp;P1;durP1;ratioP1;P2;durP2;ratioP2
40058;SDS011;25763;49.972;8.568;2023-03-12T00:02:15;9.88;;;9.25;;
40058;SDS011;25763;49.972;8.568;2023-03-12T00:04:40;9.23;;;8.63;;
40058;SDS011;25763;49.972;8.568;2023-03-12T00:07:05;8.95;;;8.35;;
40058;SDS011;25763;49.972;8.568;2023-03-12T00:09:36;9.88;;;9.23;;
40058;SDS011;25763;49.972;8.568;2023-03-12T00:12:03;10.00;;;9.20;;
40058;SDS011;25763;49.972;8.568;2023-03-12T00:14:28;9.65;;;8.95;;
40058;SDS011;25763;49.972;8.568;2023-03-12T00:16:54;9.70;;;9.10;;
40058;SDS011;25763;49.972;8.568;2023-03-12T00:19:19;9.40;;;8.80;;
40058;SDS011;25763;49.972;8.568;2023-03-12T00:21:45;11.45;;;10.40;;
40058;SDS011;25763;49.972;8.568;2023-03-12T00:24:10;9.20;;;8.60;;
40058;SDS011;25763;49.972;8.568;2023-03-12T00:26:36;9.55;;;8.95;;
40058;SDS011;25763;49.972;8.568;2023-03-12T00:29:01;9.13;;;8.52;;
40058;SDS011;25763;49.972;8.568;2023-03-12T00:31:28;8.35;;;7.85;;
40058;SDS011;25763;49.972;8.568;2023-03-12T00:33:56;8.68;;;8.10;;
40058;SDS011;25763;49.972;8.568;2023-03-12T00:36:23;17.10;;;9.40;;
40058;SDS011;25763;49.972;8.568;2023-03-12T00:38:51;10.60;;;9.90;;
40058;SDS011;25763;49.972;8.568;2023-03-12T00:41:16;10.85;;;10.15;;
40058;SDS011;25763;49.972;8.568;2023-03-12T00:43:44;9.80;;;9.20;;
40058;SDS011;25763;49.972;8.568;2023-03-12T00:46:12;9.90;;;9.20;;
40058;SDS011;25763;49.972;8.568;2023-03-12T00:48:38;9.38;;;8.77;;
40058;SDS011;25763;49.972;8.568;2023-03-12T00:51:04;9.25;;;8.65;;
40058;SDS011;25763;49.972;8.568;2023-03-12T00:53:29;10.02;;;9.43;;
40058;SDS011;25763;49.972;8.568;2023-03-12T00:55:54;9.20;;;8.60;;
40058;SDS011;25763;49.972;8.568;2023-03-12T00:58:20;9.75;;;9.05;;
40058;SDS011;25763;49.972;8.568;2023-03-12T01:00:45;8.88;;;8.27;;
40058;SDS011;25763;49.972;8.568;2023-03-12T01:03:10;9.32;;;8.73;;
40058;SDS011;25763;49.972;8.568;2023-03-12T01:05:36;10.65;;;9.80;;
40058;SDS011;25763;49.972;8.568;2023-03-12T01:08:05;9.80;;;9.20;;
40058;SDS011;25763;49.972;8.568;2023-03-12T01:10:32;9.00;;;8.40;;
40058;SDS011;25763;49.972;8.568;2023-03-12T01:12:57;9.02;;;8.43;;
40058;SDS011;25763;49.972;8.568;2023-03-12T01:15:23;8.75;;;8.20;;
40058;SDS011;25763;49.972;8.568;2023-03-12T01:17:49;8.38;;;7.88;;
40058;SDS011;25763;49.972;8.568;2023-03-12T01:20:15;8.98;;;8.38;;
40058;SDS011;25763;49.972;8.568;2023-03-12T01:22:40;8.48;;;7.97;;
40058;SDS011;25763;49.972;8.568;2023-03-12T01:25:06;8.73;;;8.13;;
40058;SDS011;25763;49.972;8.568;2023-03-12T01:27:32;9.60;;;8.80;;
40058;SDS011;25763;49.972;8.568;2023-03-12T01:29:57;10.07;;;9.38;;
40058;SDS011;25763;49.972;8.568;2023-03-12T01:32:23;9.57;;;8.93;;
40058;SDS011;25763;49.972;8.568;2023-03-12T01:34:48;10.45;;;9.75;;
40058;SDS011;25763;49.972;8.568;2023-03-12T01:37:13;10.25;;;9.55;;
40058;SDS011;25763;49.972;8.568;2023-03-12T01:39:39;13.15;;;10.93;;
40058;SDS011;25763;49.972;8.568;2023-03-12T01:42:04;9.93;;;9.07;;
40058;SDS011;25763;49.972;8.568;2023-03-12T01:44:30;11.35;;;10.45;;
40058;SDS011;25763;49.972;8.568;2023-03-12T01:47:12;9.40;;;8.80;;
40058;SDS011;25763;49.972;8.568;2023-03-12T01:49:37;10.02;;;9.43;;
40058;SDS011;25763;49.972;8.568;2023-03-12T01:52:08;10.25;;;9.55;;
40058;SDS011;25763;49.972;8.568;2023-03-12T01:54:44;9.90;;;9.23;;
40058;SDS011;25763;49.972;8.568;2023-03-12T01:57:12;9.93;;;9.32;;
40058;SDS011;25763;49.972;8.568;2023-03-12T01:59:51;9.45;;;8.75;;
40058;SDS011;25763;49.972;8.568;2023-03-12T02:02:20;10.48;;;9.77;;
40058;SDS011;25763;49.972;8.568;2023-03-12T02:04:51;12.13;;;10.15;;
40058;SDS011;25763;49.972;8.568;2023-03-12T02:07:27;9.20;;;8.40;;
40058;SDS011;25763;49.972;8.568;2023-03-12T02:09:52;10.30;;;9.57;;
40058;SDS011;25763;49.972;8.568;2023-03-12T02:12:18;10.13;;;9.43;;
40058;SDS011;25763;49.972;8.568;2023-03-12T02:14:43;9.20;;;8.60;;
40058;SDS011;25763;49.972;8.568;2023-03-12T02:17:09;9.40;;;8.80;;
40058;SDS011;25763;49.972;8.568;2023-03-12T02:19:56;10.90;;;10.13;;
40058;SDS011;25763;49.972;8.568;2023-03-12T02:22:31;9.23;;;8.63;;
40058;SDS011;25763;49.972;8.568;2023-03-12T02:25:01;8.80;;;8.23;;
40058;SDS011;25763;49.972;8.568;2023-03-12T02:27:36;9.45;;;8.80;;
40058;SDS011;25763;49.972;8.568;2023-03-12T02:30:02;9.20;;;8.60;;
40058;SDS011;25763;49.972;8.568;2023-03-12T02:32:37;9.25;;;8.65;;
40058;SDS011;25763;49.972;8.568;2023-03-12T02:35:03;8.75;;;8.15;;
40058;SDS011;25763;49.972;8.568;2023-03-12T02:37:30;8.88;;;8.27;;
40058;SDS011;25763;49.972;8.568;2023-03-12T02:40:01;15.52;;;9.30;;
40058;SDS011;25763;49.972;8.568;2023-03-12T02:42:33;10.00;;;9.38;;
40058;SDS011;25763;49.972;8.568;2023-03-12T02:44:59;9.10;;;8.50;;
40058;SDS011;25763;49.972;8.568;2023-03-12T02:47:25;9.20;;;8.60;;
40058;SDS011;25763;49.972;8.568;2023-03-12T02:49:51;9.13;;;8.52;;
40058;SDS011;25763;49.972;8.568;2023-03-12T02:52:16;8.27;;;7.78;;
40058;SDS011;25763;49.972;8.568;2023-03-12T02:54:41;9.73;;;9.10;;
40058;SDS011;25763;49.972;8.568;2023-03-12T02:57:07;9.25;;;8.65;;
40058;SDS011;25763;49.972;8.568;2023-03-12T02:59:32;9.73;;;9.13;;
40058;SDS011;25763;49.972;8.568;2023-03-12T03:01:58;9.68;;;9.07;;
40058;SDS011;25763;49.972;8.568;2023-03-12T03:04:25;10.25;;;9.63;;
40058;SDS011;25763;49.972;8.568;2023-03-12T03:06:51;8.75;;;8.15;;
40058;SDS011;25763;49.972;8.568;2023-03-12T03:09:17;9.52;;;8.93;;
40058;SDS011;25763;49.972;8.568;2023-03-12T03:11:44;8.60;;;8.07;;
40058;SDS011;25763;49.972;8.568;2023-03-12T03:14:10;9.63;;;9.02;;
40058;SDS011;25763;49.972;8.568;2023-03-12T03:16:35;8.75;;;8.15;;
40058;SDS011;25763;49.972;8.568;2023-03-12T03:19:01;10.77;;;9.98;;
40058;SDS011;25763;49.972;8.568;2023-03-12T03:21:26;9.77;;;9.15;;
40058;SDS011;25763;49.972;8.568;2023-03-12T03:23:51;10.80;;;10.10;;
40058;SDS011;25763;49.972;8.568;2023-03-12T03:26:21;9.57;;;8.93;;
40058;SDS011;25763;49.972;8.568;2023-03-12T03:28:47;8.88;;;8.27;;
40058;SDS011;25763;49.972;8.568;2023-03-12T03:31:12;8.55;;;7.97;;
40058;SDS011;25763;49.972;8.568;2023-03-12T03:33:38;8.93;;;8.32;;
40058;SDS011;25763;49.972;8.568;2023-03-12T03:36:04;9.40;;;8.70;;
40058;SDS011;25763;49.972;8.568;2023-03-12T03:38:31;9.70;;;9.10;;
40058;SDS011;25763;49.972;8.568;2023-03-12T03:40:57;9.00;;;8.38;;
40058;SDS011;25763;49.972;8.568;2023-03-12T03:43:22;9.00;;;8.40;;
40058;SDS011;25763;49.972;8.568;2023-03-12T03:45:55;9.18;;;8.57;;
40058;SDS011;25763;49.972;8.568;2023-03-12T03:48:21;9.60;;;9.00;;
40058;SDS011;25763;49.972;8.568;2023-03-12T03:50:47;8.77;;;8.18;;
40058;SDS011;25763;49.972;8.568;2023-03-12T03:53:12;9.63;;;8.95;;
40058;SDS011;25763;49.972;8.568;2023-03-12T03:55:38;9.02;;;8.43;;
40058;SDS011;25763;49.972;8.568;2023-03-12T03:58:04;10.25;;;9.30;;
40058;SDS011;25763;49.972;8.568;2023-03-12T04:00:31;8.68;;;8.07;;
40058;SDS011;25763;49.972;8.568;2023-03-12T04:02:56;8.40;;;7.90;;
40058;SDS011;25763;49.972;8.568;2023-03-12T04:05:22;9.00;;;8.40;;
40058;SDS011;25763;49.972;8.568;2023-03-12T04:07:50;8.30;;;7.80;;
40058;SDS011;25763;49.972;8.568;2023-03-12T04:10:18;9.50;;;8.90;;
40058;SDS011;25763;49.972;8.568;2023-03-12T04:12:44;8.15;;;7.65;;
40058;SDS011;25763;49.972;8.568;2023-03-12T04:15:09;8.73;;;8.13;;
40058;SDS011;25763;49.972;8.568;2023-03-12T04:17:35;9.70;;;9.10;;
40058;SDS011;25763;49.972;8.568;2023-03-12T04:20:00;8.95;;;8.35;;
40058;SDS011;25763;49.972;8.568;2023-03-12T04:22:25;8.85;;;8.25;;
40058;SDS011;25763;49.972;8.568;2023-03-12T04:24:51;8.27;;;7.78;;
40058;SDS011;25763;49.972;8.568;2023-03-12T04:27:16;8.98;;;8.20;;
40058;SDS011;25763;49.972;8.568;2023-03-12T04:29:41;7.70;;;7.20;;
40058;SDS011;25763;49.972;8.568;2023-03-12T04:32:07;8.52;;;7.93;;
40058;SDS011;25763;49.972;8.568;2023-03-12T04:34:32;8.98;;;8.38;;
40058;SDS011;25763;49.972;8.568;2023-03-12T04:36:59;9.52;;;8.93;;
40058;SDS011;25763;49.972;8.568;2023-03-12T04:39:26;8.75;;;8.15;;
40058;SDS011;25763;49.972;8.568;2023-03-12T04:41:51;9.18;;;8.57;;
40058;SDS011;25763;49.972;8.568;2023-03-12T04:44:16;8.32;;;7.82;;
40058;SDS011;25763;49.972;8.568;2023-03-12T04:46:42;9.05;;;8.45;;
40058;SDS011;25763;49.972;8.568;2023-03-12T04:49:07;9.25;;;8.55;;
40058;SDS011;25763;49.972;8.568;2023-03-12T04:51:32;9.70;;;9.00;;
40058;SDS011;25763;49.972;8.568;2023-03-12T04:53:58;8.68;;;8.07;;
40058;SDS011;25763;49.972;8.568;2023-03-12T04:56:23;9.05;;;8.45;;
40058;SDS011;25763;49.972;8.568;2023-03-12T04:58:49;9.65;;;9.05;;
40058;SDS011;25763;49.972;8.568;2023-03-12T05:01:23;9.38;;;8.65;;
40058;SDS011;25763;49.972;8.568;2023-03-12T05:03:54;9.45;;;8.85;;
40058;SDS011;25763;49.972;8.568;2023-03-12T05:06:20;8.80;;;8.20;;
40058;SDS011;25763;49.972;8.568;2023-03-12T05:08:47;9.10;;;8.50;;
40058;SDS011;25763;49.972;8.568;2023-03-12T05:11:13;8.77;;;8.18;;
40058;SDS011;25763;49.972;8.568;2023-03-12T05:13:39;9.35;;;8.75;;
40058;SDS011;25763;49.972;8.568;2023-03-12T05:16:05;8.68;;;8.07;;
40058;SDS011;25763;49.972;8.568;2023-03-12T05:18:30;9.50;;;8.90;;
40058;SDS011;25763;49.972;8.568;2023-03-12T05:21:00;10.07;;;9.32;;
40058;SDS011;25763;49.972;8.568;2023-03-12T05:23:28;8.70;;;8.10;;
40058;SDS011;25763;49.972;8.568;2023-03-12T05:25:53;10.23;;;9.52;;
40058;SDS011;25763;49.972;8.568;2023-03-12T05:28:19;8.65;;;8.10;;
40058;SDS011;25763;49.972;8.568;2023-03-12T05:30:44;8.77;;;8.18;;
40058;SDS011;25763;49.972;8.568;2023-03-12T05:33:10;9.65;;;8.95;;
40058;SDS011;25763;49.972;8.568;2023-03-12T05:35:36;9.15;;;8.55;;
40058;SDS011;25763;49.972;8.568;2023-03-12T05:38:01;9.48;;;8.85;;
40058;SDS011;25763;49.972;8.568;2023-03-12T05:40:27;8.90;;;8.30;;
40058;SDS011;25763;49.972;8.568;2023-03-12T05:42:52;9.40;;;8.80;;
40058;SDS011;25763;49.972;8.568;2023-03-12T05:45:17;9.98;;;9.27;;
40058;SDS011;25763;49.972;8.568;2023-03-12T05:47:44;9.50;;;8.90;;
40058;SDS011;25763;49.972;8.568;2023-03-12T05:50:10;11.13;;;10.27;;
40058;SDS011;25763;49.972;8.568;2023-03-12T05:52:35;9.50;;;8.90;;
40058;SDS011;25763;49.972;8.568;2023-03-12T05:55:01;9.23;;;8.63;;
40058;SDS011;25763;49.972;8.568;2023-03-12T05:57:26;9.73;;;9.05;;
40058;SDS011;25763;49.972;8.568;2023-03-12T05:59:51;9.10;;;8.50;;
40058;SDS011;25763;49.972;8.568;2023-03-12T06:02:17;9.73;;;9.13;;
40058;SDS011;25763;49.972;8.568;2023-03-12T06:04:42;10.80;;;10.10;;
40058;SDS011;25763;49.972;8.568;2023-03-12T06:07:08;9.68;;;9.00;;
40058;SDS011;25763;49.972;8.568;2023-03-12T06:09:34;10.60;;;9.93;;
40058;SDS011;25763;49.972;8.568;2023-03-12T06:11:59;11.50;;;10.70;;
40058;SDS011;25763;49.972;8.568;2023-03-12T06:14:25;10.27;;;9.57;;
40058;SDS011;25763;49.972;8.568;2023-03-12T06:16:50;10.23;;;9.52;;
40058;SDS011;25763;49.972;8.568;2023-03-12T06:19:16;9.65;;;9.05;;
40058;SDS011;25763;49.972;8.568;2023-03-12T06:21:41;10.70;;;9.82;;
40058;SDS011;25763;49.972;8.568;2023-03-12T06:24:06;10.05;;;9.40;;
40058;SDS011;25763;49.972;8.568;2023-03-12T06:26:32;9.85;;;9.15;;
40058;SDS011;25763;49.972;8.568;2023-03-12T06:28:58;9.15;;;8.55;;
40058;SDS011;25763;49.972;8.568;2023-03-12T06:31:23;9.75;;;9.07;;
40058;SDS011;25763;49.972;8.568;2023-03-12T06:33:48;10.55;;;9.75;;
40058;SDS011;25763;49.972;8.568;2023-03-12T06:36:14;9.20;;;8.60;;
40058;SDS011;25763;49.972;8.568;2023-03-12T06:38:40;10.43;;;9.82;;
40058;SDS011;25763;49.972;8.568;2023-03-12T06:41:07;10.43;;;9.82;;
40058;SDS011;25763;49.972;8.568;2023-03-12T06:43:40;9.00;;;8.40;;
40058;SDS011;25763;49.972;8.568;2023-03-12T06:46:07;10.90;;;10.10;;
40058;SDS011;25763;49.972;8.568;2023-03-12T06:48:35;9.70;;;9.00;;
40058;SDS011;25763;49.972;8.568;2023-03-12T06:51:02;8.50;;;8.00;;
40058;SDS011;25763;49.972;8.568;2023-03-12T06:53:28;8.73;;;8.13;;
40058;SDS011;25763;49.972;8.568;2023-03-12T06:55:53;10.40;;;9.70;;
40058;SDS011;25763;49.972;8.568;2023-03-12T06:58:19;9.05;;;8.45;;
40058;SDS011;25763;49.972;8.568;2023-03-12T07:00:44;8.85;;;8.25;;
40058;SDS011;25763;49.972;8.568;2023-03-12T07:03:09;9.60;;;8.90;;
40058;SDS011;25763;49.972;8.568;2023-03-12T07:05:35;10.48;;;9.77;;
40058;SDS011;25763;49.972;8.568;2023-03-12T07:08:00;9.77;;;9.18;;
40058;SDS011;25763;49.972;8.568;2023-03-12T07:10:26;10.38;;;9.68;;
40058;SDS011;25763;49.972;8.568;2023-03-12T07:12:54;9.55;;;8.95;;
40058;SDS011;25763;49.972;8.568;2023-03-12T07:15:21;10.73;;;10.02;;
40058;SDS011;25763;49.972;8.568;2023-03-12T07:17:47;9.90;;;9.20;;
40058;SDS011;25763;49.972;8.568;2023-03-12T07:20:12;10.10;;;9.40;;
40058;SDS011;25763;49.972;8.568;2023-03-12T07:22:38;9.10;;;8.50;;
40058;SDS011;25763;49.972;8.568;2023-03-12T07:25:03;10.00;;;9.32;;
40058;SDS011;25763;49.972;8.568;2023-03-12T07:27:29;9.07;;;8.48;;
40058;SDS011;25763;49.972;8.568;2023-03-12T07:29:54;9.85;;;9.25;;
40058;SDS011;25763;49.972;8.568;2023-03-12T07:32:20;10.25;;;9.55;;
40058;SDS011;25763;49.972;8.568;2023-03-12T07:34:45;9.13;;;8.52;;
40058;SDS011;25763;49.972;8.568;2023-03-12T07:37:11;9.95;;;9.25;;
40058;SDS011;25763;49.972;8.568;2023-03-12T07:39:36;9.55;;;8.95;;
40058;SDS011;25763;49.972;8.568;2023-03-12T07:42:01;8.93;;;8.32;;
40058;SDS011;25763;49.972;8.568;2023-03-12T07:44:27;10.27;;;9.48;;
40058;SDS011;25763;49.972;8.568;2023-03-12T07:46:52;9.63;;;9.02;;
40058;SDS011;25763;49.972;8.568;2023-03-12T07:49:18;9.32;;;8.73;;
40058;SDS011;25763;49.972;8.568;2023-03-12T07:51:44;10.02;;;9.43;;
40058;SDS011;25763;49.972;8.568;2023-03-12T07:54:09;9.68;;;9.07;;
40058;SDS011;25763;49.972;8.568;2023-03-12T07:56:34;9.02;;;8.43;;
40058;SDS011;25763;49.972;8.568;2023-03-12T07:59:00;9.45;;;8.85;;
40058;SDS011;25763;49.972;8.568;2023-03-12T08:01:25;12.73;;;9.55;;
40058;SDS011;25763;49.972;8.568;2023-03-12T08:03:56;10.82;;;10.13;;
40058;SDS011;25763;49.972;8.568;2023-03-12T08:06:23;11.20;;;10.20;;
40058;SDS011;25763;49.972;8.568;2023-03-12T08:08:48;9.73;;;9.13;;
40058;SDS011;25763;49.972;8.568;2023-03-12T08:11:14;9.35;;;8.75;;
40058;SDS011;25763;49.972;8.568;2023-03-12T08:13:39;10.00;;;9.35;;
40058;SDS011;25763;49.972;8.568;2023-03-12T08:16:04;9.38;;;8.77;;
40058;SDS011;25763;49.972;8.568;2023-03-12T08:18:30;9.50;;;8.90;;
40058;SDS011;25763;49.972;8.568;2023-03-12T08:20:55;9.32;;;8.73;;
40058;SDS011;25763;49.972;8.568;2023-03-12T08:23:21;9.15;;;8.55;;
40058;SDS011;25763;49.972;8.568;2023-03-12T08:25:47;9.20;;;8.60;;
40058;SDS011;25763;49.972;8.568;2023-03-12T08:28:14;9.15;;;8.48;;
40058;SDS011;25763;49.972;8.568;2023-03-12T08:30:46;8.90;;;8.30;;
40058;SDS011;25763;49.972;8.568;2023-03-12T08:33:13;9.18;;;8.57;;
40058;SDS011;25763;49.972;8.568;2023-03-12T08:35:38;9.13;;;8.52;;
40058;SDS011;25763;49.972;8.568;2023-03-12T08:38:04;8.75;;;8.15;;
40058;SDS011;25763;49.972;8.568;2023-03-12T08:40:30;9.32;;;8.73;;
40058;SDS011;25763;49.972;8.568;2023-03-12T08:42:55;9.48;;;8.88;;
40058;SDS011;25763;49.972;8.568;2023-03-12T08:45:20;8.57;;;7.97;;
40058;SDS011;25763;49.972;8.568;2023-03-12T08:47:46;8.75;;;8.15;;
40058;SDS011;25763;49.972;8.568;2023-03-12T08:50:12;9.02;;;8.43;;
40058;SDS011;25763;49.972;8.568;2023-03-12T08:52:40;10.48;;;9.65;;
40058;SDS011;25763;49.972;8.568;2023-03-12T08:55:06;9.60;;;9.00;;
40058;SDS011;25763;49.972;8.568;2023-03-12T08:57:32;9.02;;;8.43;;
40058;SDS011;25763;49.972;8.568;2023-03-12T08:59:57;10.10;;;9.38;;
40058;SDS011;25763;49.972;8.568;2023-03-12T09:02:23;10.35;;;9.60;;
40058;SDS011;25763;49.972;8.568;2023-03-12T09:04:48;9.07;;;8.48;;
40058;SDS011;25763;49.972;8.568;2023-03-12T09:07:14;9.52;;;8.93;;
40058;SDS011;25763;49.972;8.568;2023-03-12T09:09:42;10.07;;;9.27;;
40058;SDS011;25763;49.972;8.568;2023-03-12T09:12:08;10.55;;;9.60;;
40058;SDS011;25763;49.972;8.568;2023-03-12T09:14:34;9.20;;;8.60;;
40058;SDS011;25763;49.972;8.568;2023-03-12T09:16:59;9.40;;;8.80;;
40058;SDS011;25763;49.972;8.568;2023-03-12T09:19:26;10.00;;;9.38;;
40058;SDS011;25763;49.972;8.568;2023-03-12T09:21:51;9.63;;;9.02;;
40058;SDS011;25763;49.972;8.568;2023-03-12T09:24:16;9.68;;;9.05;;
40058;SDS011;25763;49.972;8.568;2023-03-12T09:26:42;11.63;;;10.63;;
40058;SDS011;25763;49.972;8.568;2023-03-12T09:29:07;10.55;;;9.85;;
40058;SDS011;25763;49.972;8.568;2023-03-12T09:31:32;9.70;;;9.00;;
40058;SDS011;25763;49.972;8.568;2023-03-12T09:33:58;10.07;;;9.38;;
40058;SDS011;25763;49.972;8.568;2023-03-12T09:36:24;10.77;;;9.98;;
40058;SDS011;25763;49.972;8.568;2023-03-12T09:38:49;9.75;;;9.15;;
40058;SDS011;25763;49.972;8.568;2023-03-12T09:41:25;9.75;;;9.15;;
40058;SDS011;25763;49.972;8.568;2023-03-12T09:46:49;10.95;;;10.25;;
40058;SDS011;25763;49.972;8.568;2023-03-12T09:49:28;12.32;;;11.43;;
40058;SDS011;25763;49.972;8.568;2023-03-12T09:52:02;11.30;;;10.48;;
40058;SDS011;25763;49.972;8.568;2023-03-12T09:54:53;12.80;;;10.88;;
40058;SDS011;25763;49.972;8.568;2023-03-12T09:57:39;11.40;;;10.60;;
40058;SDS011;25763;49.972;8.568;2023-03-12T10:00:07;11.68;;;10.90;;
40058;SDS011;25763;49.972;8.568;2023-03-12T10:02:50;10.88;;;10.18;;
40058;SDS011;25763;49.972;8.568;2023-03-12T10:21:58;11.68;;;10.98;;
40058;SDS011;25763;49.972;8.568;2023-03-12T10:24:32;11.02;;;10.35;;
40058;SDS011;25763;49.972;8.568;2023-03-12T10:27:13;12.15;;;11.35;;
40058;SDS011;25763;49.972;8.568;2023-03-12T10:29:40;11.88;;;11.07;;
40058;SDS011;25763;49.972;8.568;2023-03-12T10:32:12;12.20;;;11.40;;
40058;SDS011;25763;49.972;8.568;2023-03-12T10:34:46;10.85;;;10.15;;
40058;SDS011;25763;49.972;8.568;2023-03-12T10:37:28;12.73;;;11.73;;
40058;SDS011;25763;49.972;8.568;2023-03-12T10:40:50;13.13;;;12.30;;
40058;SDS011;25763;49.972;8.568;2023-03-12T10:42:58;13.95;;;12.95;;
40058;SDS011;25763;49.972;8.568;2023-03-12T10:47:58;13.55;;;12.65;;
40058;SDS011;25763;49.972;8.568;2023-03-12T10:50:27;12.17;;;11.30;;
40058;SDS011;25763;49.972;8.568;2023-03-12T10:58:24;12.13;;;10.95;;
40058;SDS011;25763;49.972;8.568;2023-03-12T11:00:55;11.50;;;10.80;;
40058;SDS011;25763;49.972;8.568;2023-03-12T11:05:48;12.10;;;10.98;;
40058;SDS011;25763;49.972;8.568;2023-03-12T11:10:45;11.73;;;10.93;;
40058;SDS011;25763;49.972;8.568;2023-03-12T11:16:02;11.98;;;11.23;;
40058;SDS011;25763;49.972;8.568;2023-03-12T11:21:21;12.73;;;11.82;;
40058;SDS011;25763;49.972;8.568;2023-03-12T11:26:22;14.63;;;13.43;;
40058;SDS011;25763;49.972;8.568;2023-03-12T11:28:50;14.02;;;13.02;;
40058;SDS011;25763;49.972;8.568;2023-03-12T11:31:39;12.23;;;11.43;;
40058;SDS011;25763;49.972;8.568;2023-03-12T11:34:13;12.50;;;11.70;;
40058;SDS011;25763;49.972;8.568;2023-03-12T11:39:44;13.35;;;12.45;;
40058;SDS011;25763;49.972;8.568;2023-03-12T11:53:30;12.70;;;11.90;;
40058;SDS011;25763;49.972;8.568;2023-03-12T11:56:16;11.75;;;10.95;;
40058;SDS011;25763;49.972;8.568;2023-03-12T11:58:57;12.20;;;11.40;;
40058;SDS011;25763;49.972;8.568;2023-03-12T12:30:25;11.52;;;10.73;;
40058;SDS011;25763;49.972;8.568;2023-03-12T12:35:36;11.30;;;10.60;;
40058;SDS011;25763;49.972;8.568;2023-03-12T12:38:17;11.35;;;10.65;;
40058;SDS011;25763;49.972;8.568;2023-03-12T12:40:52;11.63;;;10.93;;
40058;SDS011;25763;49.972;8.568;2023-03-12T12:46:05;12.02;;;11.30;;
40058;SDS011;25763;49.972;8.568;2023-03-12T12:48:37;11.80;;;11.00;;
40058;SDS011;25763;49.972;8.568;2023-03-12T12:51:06;11.45;;;10.75;;
40058;SDS011;25763;49.972;8.568;2023-03-12T12:53:45;12.15;;;11.35;;
40058;SDS011;25763;49.972;8.568;2023-03-12T12:56:39;12.23;;;11.10;;
40058;SDS011;25763;49.972;8.568;2023-03-12T12:59:37;11.88;;;11.07;;
40058;SDS011;25763;49.972;8.568;2023-03-12T13:02:23;11.80;;;11.10;;
40058;SDS011;25763;49.972;8.568;2023-03-12T13:04:56;12.57;;;11.68;;
40058;SDS011;25763;49.972;8.568;2023-03-12T13:09:54;12.02;;;11.23;;
40058;SDS011;25763;49.972;8.568;2023-03-12T13:12:26;12.13;;;11.32;;
40058;SDS011;25763;49.972;8.568;2023-03-12T13:14:55;12.93;;;12.02;;
40058;SDS011;25763;49.972;8.568;2023-03-12T13:17:22;12.27;;;11.45;;
40058;SDS011;25763;49.972;8.568;2023-03-12T13:19:49;12.13;;;11.32;;
40058;SDS011;25763;49.972;8.568;2023-03-12T13:27:43;11.63;;;10.73;;
40058;SDS011;25763;49.972;8.568;2023-03-12T13:45:59;12.05;;;11.25;;
40058;SDS011;25763;49.972;8.568;2023-03-12T13:48:25;13.38;;;12.48;;
40058;SDS011;25763;49.972;8.568;2023-03-12T13:50:56;13.80;;;12.90;;
40058;SDS011;25763;49.972;8.568;2023-03-12T13:53:25;13.23;;;12.38;;
40058;SDS011;25763;49.972;8.568;2023-03-12T13:56:06;13.65;;;12.85;;
40058;SDS011;25763;49.972;8.568;2023-03-12T13:59:12;14.27;;;13.15;;
40058;SDS011;25763;49.972;8.568;2023-03-12T14:01:35;14.23;;;13.30;;
40058;SDS011;25763;49.972;8.568;2023-03-12T14:04:39;11.77;;;11.07;;
40058;SDS011;25763;49.972;8.568;2023-03-12T14:07:22;12.93;;;12.13;;
40058;SDS011;25763;49.972;8.568;2023-03-12T14:13:11;12.15;;;11.45;;
40058;SDS011;25763;49.972;8.568;2023-03-12T14:18:30;12.00;;;11.20;;
40058;SDS011;25763;49.972;8.568;2023-03-12T14:21:00;12.70;;;11.90;;
40058;SDS011;25763;49.972;8.568;2023-03-12T14:23:35;11.77;;;11.05;;
40058;SDS011;25763;49.972;8.568;2023-03-12T14:26:03;11.75;;;10.95;;
40058;SDS011;25763;49.972;8.568;2023-03-12T14:28:31;13.23;;;12.32;;
40058;SDS011;25763;49.972;8.568;2023-03-12T14:31:13;11.52;;;10.82;;
40058;SDS011;25763;49.972;8.568;2023-03-12T14:33:50;11.73;;;11.02;;
40058;SDS011;25763;49.972;8.568;2023-03-12T14:36:36;12.93;;;12.13;;
40058;SDS011;25763;49.972;8.568;2023-03-12T14:39:15;12.57;;;11.68;;
40058;SDS011;25763;49.972;8.568;2023-03-12T14:41:50;13.63;;;12.65;;
40058;SDS011;25763;49.972;8.568;2023-03-12T14:44:23;11.73;;;11.02;;
40058;SDS011;25763;49.972;8.568;2023-03-12T14:47:00;13.50;;;12.50;;
40058;SDS011;25763;49.972;8.568;2023-03-12T14:49:27;13.23;;;12.43;;
40058;SDS011;25763;49.972;8.568;2023-03-12T14:51:53;12.35;;;11.45;;
40058;SDS011;25763;49.972;8.568;2023-03-12T14:54:22;11.40;;;10.63;;
40058;SDS011;25763;49.972;8.568;2023-03-12T14:56:49;11.18;;;10.48;;
40058;SDS011;25763;49.972;8.568;2023-03-12T14:59:22;12.13;;;11.38;;
40058;SDS011;25763;49.972;8.568;2023-03-12T15:01:50;11.73;;;10.98;;
40058;SDS011;25763;49.972;8.568;2023-03-12T15:04:23;13.27;;;12.38;;
40058;SDS011;25763;49.972;8.568;2023-03-12T15:06:58;12.82;;;12.02;;
40058;SDS011;25763;49.972;8.568;2023-03-12T15:09:28;12.25;;;11.45;;
40058;SDS011;25763;49.972;8.568;2023-03-12T15:11:56;12.45;;;11.75;;
40058;SDS011;25763;49.972;8.568;2023-03-12T15:14:26;12.25;;;11.45;;
40058;SDS011;25763;49.972;8.568;2023-03-12T15:16:53;12.15;;;11.25;;
40058;SDS011;25763;49.972;8.568;2023-03-12T15:19:22;11.60;;;10.90;;
40058;SDS011;25763;49.972;8.568;2023-03-12T15:21:53;11.52;;;10.82;;
40058;SDS011;25763;49.972;8.568;2023-03-12T15:24:18;12.15;;;11.45;;
40058;SDS011;25763;49.972;8.568;2023-03-12T15:26:44;11.50;;;10.80;;
40058;SDS011;25763;49.972;8.568;2023-03-12T15:31:50;12.00;;;11.20;;
40058;SDS011;25763;49.972;8.568;2023-03-12T15:34:27;12.65;;;11.82;;
40058;SDS011;25763;49.972;8.568;2023-03-12T15:36:56;12.73;;;11.93;;
40058;SDS011;25763;49.972;8.568;2023-03-12T15:39:24;14.05;;;13.15;;
40058;SDS011;25763;49.972;8.568;2023-03-12T15:41:50;14.07;;;12.98;;
40058;SDS011;25763;49.972;8.568;2023-03-12T15:46:51;11.93;;;11.23;;
40058;SDS011;25763;49.972;8.568;2023-03-12T15:49:20;13.57;;;12.68;;
40058;SDS011;25763;49.972;8.568;2023-03-12T15:54:42;12.70;;;11.90;;
40058;SDS011;25763;49.972;8.568;2023-03-12T15:57:23;13.20;;;12.30;;
40058;SDS011;25763;49.972;8.568;2023-03-12T16:00:05;12.57;;;11.73;;
40058;SDS011;25763;49.972;8.568;2023-03-12T16:02:35;12.65;;;11.48;;
40058;SDS011;25763;49.972;8.568;2023-03-12T16:05:02;12.65;;;11.95;;
40058;SDS011;25763;49.972;8.568;2023-03-12T16:07:28;11.75;;;11.05;;
40058;SDS011;25763;49.972;8.568;2023-03-12T16:09:54;12.57;;;11.77;;
40058;SDS011;25763;49.972;8.568;2023-03-12T16:12:20;11.88;;;11.18;;
40058;SDS011;25763;49.972;8.568;2023-03-12T16:14:46;13.68;;;12.88;;
40058;SDS011;25763;49.972;8.568;2023-03-12T16:17:13;13.70;;;12.52;;
40058;SDS011;25763;49.972;8.568;2023-03-12T16:19:41;13.05;;;12.25;;
40058;SDS011;25763;49.972;8.568;2023-03-12T16:22:07;13.93;;;12.82;;
40058;SDS011;25763;49.972;8.568;2023-03-12T16:24:32;12.73;;;11.93;;
40058;SDS011;25763;49.972;8.568;2023-03-12T16:26:58;12.90;;;11.65;;
40058;SDS011;25763;49.972;8.568;2023-03-12T16:29:26;13.07;;;12.20;;
40058;SDS011;25763;49.972;8.568;2023-03-12T16:31:58;12.93;;;11.98;;
40058;SDS011;25763;49.972;8.568;2023-03-12T16:34:23;11.88;;;11.10;;
40058;SDS011;25763;49.972;8.568;2023-03-12T16:36:49;12.57;;;11.77;;
40058;SDS011;25763;49.972;8.568;2023-03-12T16:39:15;13.80;;;12.80;;
40058;SDS011;25763;49.972;8.568;2023-03-12T16:41:40;11.52;;;10.82;;
40058;SDS011;25763;49.972;8.568;2023-03-12T16:44:06;12.52;;;11.75;;
40058;SDS011;25763;49.972;8.568;2023-03-12T16:46:36;12.60;;;11.53;;
40058;SDS011;25763;49.972;8.568;2023-03-12T16:49:02;19.15;;;10.77;;
40058;SDS011;25763;49.972;8.568;2023-03-12T16:51:27;11.88;;;11.18;;